Metar z pełnej godziny Komunikat METAR ze strony awiacja.imgw.pl Metar G00 EPSC METAR EPSC 171300Z 25010KT 9999 SCT039 21/13 Q1018 =